Time;durP1;ratioP1;P1;durP2;ratioP2;P2;SDS_P1;SDS_P2;PMS_P1;PMS_P2;Temp;Humidity;BMP_temperature;BMP_pressure;BME280_temperature;BME280_humidity;BME280_pressure;Samples;Min_cycle;Max_cycle;Signal;HPM_P1;HPM_P2
2024/02/23 00:01:11;;;;;;;1.98;0.55;;;6.30;99.90;;;;;;5099026;28;20020;-91
2024/02/23 00:03:39;;;;;;;;;;;6.30;99.90;;;;;;5099319;28;20023;-93
2024/02/23 00:06:05;;;;;;;1.98;0.70;;;6.40;99.90;;;;;;5098481;28;20275;-93
2024/02/23 00:08:31;;;;;;;3.00;0.63;;;6.40;99.90;;;;;;5098709;28;20024;-92
2024/02/23 00:10:59;;;;;;;2.20;0.90;;;6.40;99.90;;;;;;5098061;28;20052;-92
2024/02/23 00:13:24;;;;;;;3.08;0.73;;;6.50;99.90;;;;;;5098401;28;20027;-91
2024/02/23 00:15:51;;;;;;;3.10;0.80;;;6.50;99.90;;;;;;5098351;28;20097;-92
2024/02/23 00:18:17;;;;;;;4.47;1.13;;;6.50;99.90;;;;;;5116403;28;20455;-90
2024/02/23 00:20:43;;;;;;;2.22;0.95;;;6.50;99.90;;;;;;5098570;28;20031;-91
2024/02/23 00:23:11;;;;;;;4.03;0.93;;;6.50;99.90;;;;;;5098503;28;20364;-93
2024/02/23 00:25:43;;;;;;;4.75;0.90;;;6.60;99.90;;;;;;5098512;28;20047;-91
2024/02/23 00:28:09;;;;;;;5.35;0.98;;;6.60;99.90;;;;;;5098297;28;20038;-91
2024/02/23 00:30:34;;;;;;;6.05;1.20;;;6.60;99.90;;;;;;5081458;28;20051;-92
2024/02/23 00:33:00;;;;;;;5.00;1.27;;;6.60;99.90;;;;;;5081313;28;20091;-92
2024/02/23 00:35:26;;;;;;;4.88;1.00;;;6.60;99.90;;;;;;5098390;28;20379;-90
2024/02/23 00:37:52;;;;;;;4.63;1.02;;;6.60;99.90;;;;;;5116677;28;20023;-92
2024/02/23 00:40:18;;;;;;;3.70;1.13;;;6.60;99.90;;;;;;5116742;28;20047;-91
2024/02/23 00:42:44;;;;;;;1.55;0.80;;;6.60;99.90;;;;;;5082613;28;20039;-92
2024/02/23 00:45:10;;;;;;;2.95;0.95;;;6.60;99.90;;;;;;5111598;28;20032;-91
2024/02/23 00:47:36;;;;;;;5.20;1.67;;;6.60;99.90;;;;;;5087707;28;20027;-91
2024/02/23 00:50:02;;;;;;;3.20;1.30;;;6.60;99.90;;;;;;5120506;28;20049;-91
2024/02/23 00:52:28;;;;;;;5.13;1.30;;;6.50;99.90;;;;;;5104172;28;20027;-93
2024/02/23 00:54:56;;;;;;;2.45;1.50;;;6.40;99.90;;;;;;5114753;28;20118;-94
2024/02/23 00:57:27;;;;;;;2.97;1.25;;;6.40;99.90;;;;;;5065301;28;20039;-93
2024/02/23 00:59:53;;;;;;;2.72;1.10;;;6.30;99.90;;;;;;5098321;28;20030;-92
2024/02/23 01:02:19;;;;;;;3.10;1.25;;;6.40;99.90;;;;;;5097601;28;20027;-92
2024/02/23 01:04:44;;;;;;;3.22;1.50;;;6.40;99.90;;;;;;5097300;28;20093;-91
2024/02/23 01:07:10;;;;;;;5.18;1.65;;;6.50;99.90;;;;;;5097961;28;20102;-92
2024/02/23 01:09:36;;;;;;;4.57;1.98;;;6.50;99.90;;;;;;5097855;28;20054;-90
2024/02/23 01:12:02;;;;;;;4.57;2.78;;;6.50;99.90;;;;;;5097346;28;20065;-91
2024/02/23 01:14:27;;;;;;;5.45;2.53;;;6.50;99.90;;;;;;5097286;28;20023;-90
2024/02/23 01:16:53;;;;;;;6.53;2.58;;;6.50;99.90;;;;;;5097582;28;20026;-92
2024/02/23 01:19:19;;;;;;;9.90;2.90;;;6.60;99.90;;;;;;5097459;28;20024;-92
2024/02/23 01:21:45;;;;;;;4.72;2.30;;;6.50;99.90;;;;;;5080698;28;20589;-92
2024/02/23 01:24:11;;;;;;;3.60;2.15;;;6.50;99.90;;;;;;5097228;28;20051;-90
2024/02/23 01:26:36;;;;;;;5.63;2.78;;;6.50;99.90;;;;;;5097227;28;20024;-91
2024/02/23 01:29:03;;;;;;;4.25;2.70;;;6.50;99.90;;;;;;5096906;28;20088;-87
2024/02/23 01:31:29;;;;;;;6.18;2.50;;;6.50;99.90;;;;;;5097349;28;20118;-92
2024/02/23 01:33:55;;;;;;;4.60;2.53;;;6.50;99.90;;;;;;5097265;28;20059;-91
2024/02/23 01:36:20;;;;;;;6.82;2.67;;;6.50;99.90;;;;;;5096569;28;20061;-91
2024/02/23 01:38:46;;;;;;;5.63;2.22;;;6.50;99.90;;;;;;5102462;28;20034;-91
2024/02/23 01:41:12;;;;;;;3.50;2.13;;;6.50;99.90;;;;;;5110683;28;20024;-90
2024/02/23 01:43:38;;;;;;;6.68;2.38;;;6.50;99.90;;;;;;5115208;28;20027;-90
2024/02/23 01:46:04;;;;;;;7.32;2.20;;;6.50;99.90;;;;;;5080080;28;20024;-88
2024/02/23 01:48:31;;;;;;;6.55;1.98;;;6.40;99.90;;;;;;5083919;28;20058;-90
2024/02/23 01:50:57;;;;;;;4.93;2.08;;;6.40;99.90;;;;;;5101042;28;20020;-90
2024/02/23 01:53:27;;;;;;;5.38;1.88;;;6.40;99.90;;;;;;5101205;28;20092;-89
2024/02/23 01:55:54;;;;;;;4.82;1.70;;;6.40;99.90;;;;;;5101524;28;20032;-90
2024/02/23 01:58:24;;;;;;;4.43;1.58;;;6.40;99.90;;;;;;5100568;28;20015;-90
2024/02/23 02:00:50;;;;;;;6.25;1.80;;;6.40;99.90;;;;;;5101141;28;20016;-91
2024/02/23 02:03:15;;;;;;;4.75;1.45;;;6.30;99.90;;;;;;5084103;28;20020;-90
2024/02/23 02:05:41;;;;;;;5.43;1.75;;;6.30;99.90;;;;;;5101577;28;20528;-90
2024/02/23 02:08:11;;;;;;;5.53;1.73;;;6.30;99.90;;;;;;5106594;28;20031;-88
2024/02/23 02:10:36;;;;;;;3.40;1.23;;;6.30;99.90;;;;;;5121205;28;20016;-90
2024/02/23 02:13:04;;;;;;;5.95;1.48;;;6.30;99.90;;;;;;5118476;22;20040;-83
2024/02/23 02:15:29;;;;;;;5.43;1.40;;;6.20;99.90;;;;;;5084127;28;20076;-83
2024/02/23 02:17:55;;;;;;;5.15;1.42;;;6.20;99.90;;;;;;5051210;28;20027;-83
2024/02/23 02:20:24;;;;;;;5.05;1.25;;;6.20;99.90;;;;;;5029030;28;20021;-83
2024/02/23 02:22:50;;;;;;;8.88;1.52;;;6.20;99.90;;;;;;5054303;28;20018;-83
2024/02/23 02:25:16;;;;;;;7.13;1.63;;;6.20;99.90;;;;;;5038465;28;20033;-83
2024/02/23 02:27:42;;;;;;;4.25;1.45;;;6.20;99.90;;;;;;5055803;28;20029;-84
2024/02/23 02:30:08;;;;;;;6.88;1.23;;;6.20;99.90;;;;;;5039156;28;20029;-83
2024/02/23 02:32:35;;;;;;;4.85;1.52;;;6.20;99.90;;;;;;5039117;28;20036;-84
2024/02/23 02:35:01;;;;;;;4.82;1.02;;;6.20;99.90;;;;;;5056657;28;20116;-84
2024/02/23 02:37:27;;;;;;;5.32;1.38;;;6.20;99.90;;;;;;5038679;28;20111;-84
2024/02/23 02:39:52;;;;;;;7.38;1.33;;;6.20;99.90;;;;;;5039039;28;20029;-84
2024/02/23 02:42:18;;;;;;;4.20;1.23;;;6.20;99.90;;;;;;5038840;28;20124;-83
2024/02/23 02:44:44;;;;;;;4.55;1.10;;;6.20;99.90;;;;;;5021958;28;20532;-84
2024/02/23 02:47:09;;;;;;;3.75;1.10;;;6.20;99.90;;;;;;5038962;28;20037;-84
2024/02/23 02:49:35;;;;;;;5.30;1.55;;;6.10;99.90;;;;;;5038530;28;20029;-84
2024/02/23 02:52:01;;;;;;;3.30;1.05;;;6.20;99.90;;;;;;5018719;28;20041;-84
2024/02/23 02:54:27;;;;;;;4.85;1.02;;;6.10;99.90;;;;;;5014313;28;20103;-84
2024/02/23 02:56:55;;;;;;;4.93;1.30;;;6.20;99.90;;;;;;5021110;28;20080;-84
2024/02/23 02:59:21;;;;;;;3.03;0.80;;;6.20;99.90;;;;;;5038586;28;20456;-84
2024/02/23 03:01:46;;;;;;;4.03;0.95;;;6.20;99.90;;;;;;5038667;28;20039;-84
2024/02/23 03:04:13;;;;;;;4.15;1.33;;;6.20;99.90;;;;;;5055954;28;20036;-83
2024/02/23 03:06:38;;;;;;;4.70;1.50;;;6.20;99.90;;;;;;5021852;28;20132;-84
2024/02/23 03:09:05;;;;;;;5.20;1.70;;;6.20;99.90;;;;;;5021722;28;20033;-83
2024/02/23 03:11:30;;;;;;;4.00;1.42;;;6.20;99.90;;;;;;5054374;28;20025;-82
2024/02/23 03:13:56;;;;;;;3.60;1.10;;;6.20;99.90;;;;;;5021295;28;20053;-83
2024/02/23 03:16:26;;;;;;;4.35;1.13;;;6.20;99.90;;;;;;5021649;28;20055;-83
2024/02/23 03:18:54;;;;;;;6.30;1.80;;;6.20;99.90;;;;;;5038721;28;20098;-83
2024/02/23 03:21:20;;;;;;;2.95;0.75;;;6.20;99.90;;;;;;5038499;28;20036;-83
2024/02/23 03:23:45;;;;;;;6.13;1.10;;;6.20;99.90;;;;;;5038075;28;20215;-83
2024/02/23 03:26:11;;;;;;;8.35;1.88;;;6.20;99.90;;;;;;5038080;28;20499;-83
2024/02/23 03:28:37;;;;;;;6.03;1.58;;;6.20;99.90;;;;;;5021534;28;20075;-83
2024/02/23 03:31:02;;;;;;;3.60;1.02;;;6.20;99.90;;;;;;5064186;28;20016;-83
2024/02/23 03:33:28;;;;;;;4.30;1.10;;;6.20;99.90;;;;;;5062289;28;20025;-83
2024/02/23 03:35:55;;;;;;;5.35;1.20;;;6.20;99.90;;;;;;5062856;28;20013;-82
2024/02/23 03:38:21;;;;;;;3.55;1.25;;;6.10;99.90;;;;;;5063067;28;20005;-82
2024/02/23 03:40:46;;;;;;;3.85;1.42;;;6.20;99.90;;;;;;5062496;28;20048;-83
2024/02/23 03:43:12;;;;;;;3.78;0.93;;;6.20;99.90;;;;;;5060813;28;20026;-83
2024/02/23 03:45:38;;;;;;;4.78;1.10;;;6.20;99.90;;;;;;5062740;28;20491;-83
2024/02/23 03:48:04;;;;;;;3.47;1.45;;;6.20;99.90;;;;;;5038679;28;20040;-83
2024/02/23 03:50:30;;;;;;;3.30;1.23;;;6.20;99.90;;;;;;5020131;28;20033;-83
2024/02/23 03:52:56;;;;;;;4.38;1.20;;;6.20;99.90;;;;;;5053236;28;20490;-83
2024/02/23 03:55:21;;;;;;;8.20;1.70;;;6.20;99.90;;;;;;5050370;28;20032;-83
2024/02/23 03:57:48;;;;;;;6.45;1.23;;;6.20;99.90;;;;;;5059487;28;20097;-82
2024/02/23 04:00:14;;;;;;;5.80;1.25;;;6.20;99.90;;;;;;4995959;28;20029;-83
2024/02/23 04:02:40;;;;;;;9.32;1.45;;;6.10;99.90;;;;;;5053824;28;20028;-82
2024/02/23 04:05:06;;;;;;;3.53;1.15;;;6.10;99.90;;;;;;5034292;28;20370;-84
2024/02/23 04:07:32;;;;;;;3.13;1.48;;;6.10;99.90;;;;;;5056703;28;20052;-83
2024/02/23 04:09:57;;;;;;;4.68;1.30;;;6.10;99.90;;;;;;5071245;28;20487;-83
2024/02/23 04:12:24;;;;;;;5.43;1.45;;;6.10;99.90;;;;;;5036010;28;20119;-83
2024/02/23 04:14:49;;;;;;;3.83;1.13;;;6.10;99.90;;;;;;5036959;28;20025;-83
2024/02/23 04:17:15;;;;;;;3.92;1.45;;;6.10;99.90;;;;;;5049441;28;20479;-83
2024/02/23 04:19:41;;;;;;;6.05;1.88;;;6.10;99.90;;;;;;5019981;28;20025;-83
2024/02/23 04:22:09;;;;;;;4.82;1.33;;;6.10;99.90;;;;;;5036666;28;20113;-83
2024/02/23 04:24:38;;;;;;;7.07;1.48;;;6.10;99.90;;;;;;5036414;28;20124;-83
2024/02/23 04:27:05;;;;;;;4.60;1.40;;;6.10;99.90;;;;;;5045329;28;20064;-83
2024/02/23 04:29:32;;;;;;;4.25;1.58;;;6.10;99.90;;;;;;5052842;28;20120;-83
2024/02/23 04:32:01;;;;;;;4.32;1.10;;;6.10;99.90;;;;;;5023946;28;20021;-83
2024/02/23 04:34:27;;;;;;;4.20;1.05;;;6.10;99.90;;;;;;5036920;28;20456;-83
2024/02/23 04:36:52;;;;;;;5.00;1.20;;;6.10;99.90;;;;;;5020426;28;20029;-83
2024/02/23 04:39:18;;;;;;;5.20;1.40;;;6.10;99.90;;;;;;5047027;28;20431;-83
2024/02/23 04:41:44;;;;;;;5.63;1.50;;;6.10;99.90;;;;;;5054211;28;20039;-83
2024/02/23 04:44:09;;;;;;;4.30;1.35;;;6.10;99.90;;;;;;5036763;28;20044;-83
2024/02/23 04:46:35;;;;;;;5.43;1.27;;;6.10;99.90;;;;;;5048538;28;20033;-83
2024/02/23 04:49:01;;;;;;;7.15;1.35;;;6.10;99.90;;;;;;5040060;28;20093;-83
2024/02/23 04:51:27;;;;;;;6.07;1.42;;;6.00;99.90;;;;;;5069665;28;20123;-83
2024/02/23 04:53:53;;;;;;;4.82;1.30;;;6.00;99.90;;;;;;5031425;28;20103;-83
2024/02/23 04:56:19;;;;;;;4.10;1.40;;;6.00;99.90;;;;;;5054081;28;20468;-83
2024/02/23 04:58:44;;;;;;;4.30;0.95;;;6.00;99.90;;;;;;5025675;28;20082;-83
2024/02/23 05:01:10;;;;;;;3.97;1.20;;;6.00;99.90;;;;;;5042380;28;20029;-83
2024/02/23 05:03:37;;;;;;;3.58;1.08;;;6.00;99.90;;;;;;5086628;28;20089;-82
2024/02/23 05:06:04;;;;;;;5.53;1.25;;;6.00;99.90;;;;;;5077711;28;20031;-83
2024/02/23 05:08:30;;;;;;;4.50;1.30;;;6.00;99.90;;;;;;5063747;28;20036;-83
2024/02/23 05:10:59;;;;;;;3.70;1.10;;;6.00;99.90;;;;;;5054265;28;20029;-83
2024/02/23 05:13:24;;;;;;;4.38;1.13;;;6.10;99.90;;;;;;5028167;28;20091;-83
2024/02/23 05:15:50;;;;;;;3.17;1.10;;;6.10;99.90;;;;;;5026383;28;20493;-82
2024/02/23 05:18:16;;;;;;;6.55;1.90;;;6.10;99.90;;;;;;5035785;28;20036;-83
2024/02/23 05:20:42;;;;;;;3.92;1.40;;;6.20;99.90;;;;;;5058454;28;20104;-83
2024/02/23 05:23:07;;;;;;;6.45;1.20;;;6.20;99.90;;;;;;5055192;28;20040;-83
2024/02/23 05:25:34;;;;;;;7.55;1.42;;;6.30;99.90;;;;;;5050738;28;20033;-82
2024/02/23 05:27:59;;;;;;;6.43;1.20;;;6.30;99.90;;;;;;5051958;28;20029;-83
2024/02/23 05:30:27;;;;;;;6.20;1.30;;;6.30;99.90;;;;;;5028627;28;20083;-82
2024/02/23 05:32:53;;;;;;;6.10;1.45;;;6.40;99.90;;;;;;5041216;28;20029;-83
2024/02/23 05:35:18;;;;;;;5.93;1.33;;;6.40;99.90;;;;;;5069211;28;20039;-82
2024/02/23 05:37:44;;;;;;;2.67;1.38;;;6.40;99.90;;;;;;5032936;28;20370;-82
2024/02/23 05:40:10;;;;;;;3.22;0.70;;;6.40;99.90;;;;;;5033593;28;20032;-82
2024/02/23 05:42:39;;;;;;;6.10;1.27;;;6.50;99.90;;;;;;5051969;28;20025;-82
2024/02/23 05:45:08;;;;;;;3.97;1.08;;;6.50;99.90;;;;;;5054234;28;20108;-83
2024/02/23 05:47:36;;;;;;;5.70;1.10;;;6.60;99.90;;;;;;5052987;28;20108;-82
2024/02/23 05:50:03;;;;;;;4.43;1.33;;;6.60;99.90;;;;;;5053743;28;20040;-82
2024/02/23 05:52:31;;;;;;;3.70;1.05;;;6.70;99.90;;;;;;5060293;28;20109;-82
2024/02/23 05:54:56;;;;;;;3.70;1.10;;;6.70;99.90;;;;;;5035328;28;20166;-83
2024/02/23 05:57:22;;;;;;;3.67;1.48;;;6.70;99.90;;;;;;5034988;28;20116;-82
2024/02/23 05:59:48;;;;;;;4.05;1.50;;;6.70;99.90;;;;;;5034761;28;20036;-83
2024/02/23 06:02:13;;;;;;;4.65;1.20;;;6.70;99.90;;;;;;5014804;28;20025;-85
2024/02/23 06:04:40;;;;;;;3.33;1.40;;;6.70;99.90;;;;;;5030871;28;20029;-84
2024/02/23 06:07:06;;;;;;;4.32;1.20;;;6.70;99.90;;;;;;5060716;28;20021;-84
2024/02/23 06:09:32;;;;;;;5.20;1.30;;;6.70;99.90;;;;;;5035981;28;20040;-85
2024/02/23 06:12:00;;;;;;;4.32;1.38;;;6.70;99.90;;;;;;5023923;28;20380;-87
2024/02/23 06:14:26;;;;;;;4.35;1.58;;;6.70;99.90;;;;;;5048890;28;20075;-85
2024/02/23 06:16:51;;;;;;;6.57;1.30;;;6.70;99.90;;;;;;5016063;28;20396;-85
2024/02/23 06:19:17;;;;;;;4.45;1.42;;;6.80;99.90;;;;;;5017691;28;20455;-87
2024/02/23 06:21:43;;;;;;;2.95;1.60;;;6.80;99.90;;;;;;5037262;28;20055;-85
2024/02/23 06:24:09;;;;;;;3.58;1.50;;;6.70;99.90;;;;;;5089341;28;20051;-84
2024/02/23 06:26:35;;;;;;;3.42;0.93;;;6.70;99.90;;;;;;5048370;28;20043;-84
2024/02/23 06:29:01;;;;;;;5.25;1.20;;;6.70;99.90;;;;;;5060920;28;20029;-85
2024/02/23 06:31:27;;;;;;;4.65;1.30;;;6.70;99.90;;;;;;5058739;28;20090;-85
2024/02/23 06:33:52;;;;;;;3.75;1.17;;;6.70;99.90;;;;;;5036729;28;20054;-85
2024/02/23 06:36:18;;;;;;;7.25;1.35;;;6.70;99.90;;;;;;5040188;28;20041;-86
2024/02/23 06:38:45;;;;;;;4.85;1.23;;;6.70;99.90;;;;;;5039744;28;20406;-85
2024/02/23 06:41:11;;;;;;;4.97;1.25;;;6.70;99.90;;;;;;5040159;28;20140;-85
2024/02/23 06:43:37;;;;;;;3.58;1.10;;;6.60;99.90;;;;;;5070827;28;20025;-88
2024/02/23 06:46:10;;;;;;;4.82;1.92;;;6.70;99.90;;;;;;5051404;28;20029;-83
2024/02/23 06:48:36;;;;;;;3.22;0.85;;;6.70;99.90;;;;;;5040184;28;20028;-85
2024/02/23 06:51:03;;;;;;;5.25;1.48;;;6.70;99.90;;;;;;5075278;28;20016;-85
2024/02/23 06:53:29;;;;;;;6.53;1.40;;;6.70;99.90;;;;;;5041313;28;20120;-85
2024/02/23 06:55:55;;;;;;;3.80;1.00;;;6.80;99.90;;;;;;5049374;28;20052;-85
2024/02/23 06:58:21;;;;;;;3.50;1.13;;;6.80;99.90;;;;;;5018326;28;20120;-86
2024/02/23 07:00:49;;;;;;;5.47;1.38;;;6.80;99.90;;;;;;5026944;28;20029;-85
2024/02/23 07:03:16;;;;;;;4.05;1.10;;;6.80;99.90;;;;;;5047992;28;20052;-84
2024/02/23 07:05:42;;;;;;;3.55;1.25;;;6.80;99.90;;;;;;5022872;28;20095;-86
2024/02/23 07:08:08;;;;;;;4.07;1.17;;;6.90;99.90;;;;;;5040866;28;20032;-84
2024/02/23 07:10:34;;;;;;;3.33;1.10;;;6.90;99.90;;;;;;5055719;28;20538;-84
2024/02/23 07:12:59;;;;;;;4.28;1.40;;;6.90;99.90;;;;;;5021310;28;20057;-83
2024/02/23 07:15:29;;;;;;;5.70;1.85;;;6.90;99.90;;;;;;5038594;28;20091;-86
2024/02/23 07:17:55;;;;;;;9.55;1.67;;;7.00;99.90;;;;;;5074502;28;20465;-85
2024/02/23 07:20:22;;;;;;;4.65;1.38;;;7.00;99.90;;;;;;5075447;28;20017;-86
2024/02/23 07:22:48;;;;;;;4.22;1.58;;;7.00;99.90;;;;;;5006817;28;20029;-86
2024/02/23 07:25:22;;;;;;;5.57;1.30;;;7.00;99.90;;;;;;5042871;28;20029;-84
2024/02/23 07:27:49;;;;;;;6.50;1.80;;;7.00;99.90;;;;;;5055457;28;20087;-85
2024/02/23 07:30:18;;;;;;;5.00;1.23;;;7.00;99.90;;;;;;5055342;28;20079;-84
2024/02/23 07:32:44;;;;;;;6.47;1.40;;;7.10;99.90;;;;;;5052727;28;20127;-84
2024/02/23 07:35:10;;;;;;;8.27;1.90;;;7.00;99.90;;;;;;5026901;28;20044;-83
2024/02/23 07:37:37;;;;;;;4.95;1.30;;;7.10;99.90;;;;;;5055925;28;20021;-85
2024/02/23 07:40:04;;;;;;;4.68;1.70;;;7.10;99.90;;;;;;5039118;28;20033;-84
2024/02/23 07:42:31;;;;;;;4.30;1.17;;;7.10;99.90;;;;;;5049067;28;20025;-85
2024/02/23 07:44:57;;;;;;;5.30;1.23;;;7.10;99.90;;;;;;5056573;28;20033;-85
2024/02/23 07:47:22;;;;;;;5.20;1.48;;;7.10;99.90;;;;;;5044862;28;20102;-85
2024/02/23 07:49:48;;;;;;;3.80;1.08;;;7.10;99.90;;;;;;5043351;28;20065;-85
2024/02/23 07:52:14;;;;;;;5.18;1.20;;;7.20;99.90;;;;;;5082395;28;20028;-84
2024/02/23 07:54:39;;;;;;;4.40;1.10;;;7.20;99.90;;;;;;5078048;28;20080;-83
2024/02/23 07:57:05;;;;;;;4.28;1.10;;;7.20;99.90;;;;;;5042791;28;20033;-85
2024/02/23 07:59:31;;;;;;;8.73;1.63;;;7.20;99.90;;;;;;5018293;28;20039;-84
2024/02/23 08:01:59;;;;;;;2.55;0.93;;;7.30;99.90;;;;;;5053286;28;20488;-84
2024/02/23 08:04:25;;;;;;;5.63;1.25;;;7.30;99.90;;;;;;5032194;28;20032;-84
2024/02/23 08:06:51;;;;;;;4.80;1.40;;;7.30;99.90;;;;;;5054041;28;20044;-86
2024/02/23 08:09:18;;;;;;;4.13;1.10;;;7.30;99.90;;;;;;5024382;28;20136;-84
2024/02/23 08:11:43;;;;;;;5.57;1.30;;;7.30;99.90;;;;;;5074716;28;20512;-83
2024/02/23 08:14:09;;;;;;;5.90;1.30;;;7.40;99.90;;;;;;5056529;28;20495;-84
2024/02/23 08:16:35;;;;;;;3.65;1.17;;;7.40;99.90;;;;;;5073225;28;20024;-84
2024/02/23 08:19:01;;;;;;;5.18;1.42;;;7.50;99.90;;;;;;5056021;28;20028;-85
2024/02/23 08:21:29;;;;;;;6.32;1.60;;;7.50;99.90;;;;;;5037159;28;20039;-84
2024/02/23 08:23:55;;;;;;;4.53;1.30;;;7.50;99.90;;;;;;5041711;28;20013;-85
2024/02/23 08:26:21;;;;;;;3.50;1.02;;;7.50;99.90;;;;;;5054661;28;20082;-84
2024/02/23 08:28:46;;;;;;;4.82;1.23;;;7.50;99.90;;;;;;5021215;28;20497;-84
2024/02/23 08:31:12;;;;;;;8.70;1.63;;;7.50;99.90;;;;;;5031077;28;20469;-84
2024/02/23 08:33:38;;;;;;;4.45;1.30;;;7.60;99.90;;;;;;5033059;28;20470;-84
2024/02/23 08:36:05;;;;;;;4.32;1.20;;;7.60;99.90;;;;;;5010352;28;20057;-83
2024/02/23 08:38:32;;;;;;;5.57;1.45;;;7.70;99.90;;;;;;5054404;28;20071;-84
2024/02/23 08:41:02;;;;;;;5.35;1.40;;;7.70;99.90;;;;;;5037408;28;20029;-86
2024/02/23 08:43:28;;;;;;;6.25;1.50;;;7.70;99.90;;;;;;5032517;28;20048;-84
2024/02/23 08:45:53;;;;;;;5.40;1.23;;;7.70;99.90;;;;;;5052891;28;20491;-83
2024/02/23 08:48:19;;;;;;;4.65;1.00;;;7.70;99.90;;;;;;5036486;28;20028;-83
2024/02/23 08:50:44;;;;;;;4.18;1.00;;;7.80;99.90;;;;;;5037726;28;20025;-84
2024/02/23 08:53:10;;;;;;;4.45;1.20;;;7.80;99.90;;;;;;5003585;28;20580;-86
2024/02/23 08:55:36;;;;;;;5.95;1.30;;;7.80;99.90;;;;;;5045244;28;20029;-85
2024/02/23 08:58:01;;;;;;;5.80;1.00;;;7.90;99.90;;;;;;5040157;28;20512;-84
2024/02/23 09:00:28;;;;;;;5.75;1.38;;;8.00;99.90;;;;;;5074395;28;20132;-84
2024/02/23 09:02:55;;;;;;;4.28;1.40;;;7.90;99.90;;;;;;5056974;28;20029;-85
2024/02/23 09:05:20;;;;;;;3.10;1.27;;;8.00;99.90;;;;;;5053933;28;20029;-85
2024/02/23 09:07:46;;;;;;;2.63;1.08;;;8.00;99.90;;;;;;5028393;28;20119;-84
2024/02/23 09:10:12;;;;;;;3.15;1.20;;;8.00;99.90;;;;;;5056348;28;20395;-85
2024/02/23 09:12:38;;;;;;;4.20;1.42;;;8.00;99.90;;;;;;5070248;28;20041;-82
2024/02/23 09:15:05;;;;;;;6.72;1.65;;;8.00;99.90;;;;;;5046239;28;20024;-85
2024/02/23 09:17:30;;;;;;;8.27;1.60;;;8.00;99.90;;;;;;5070387;28;20040;-84
2024/02/23 09:19:56;;;;;;;6.15;1.30;;;8.00;99.90;;;;;;5050091;28;20025;-85
2024/02/23 09:22:22;;;;;;;6.90;1.50;;;8.10;99.90;;;;;;5069934;28;20045;-84
2024/02/23 09:24:48;;;;;;;7.57;1.30;;;8.00;99.90;;;;;;5040466;28;20098;-83
2024/02/23 09:27:19;;;;;;;5.82;1.35;;;8.00;99.90;;;;;;5056003;28;20083;-84
2024/02/23 09:29:44;;;;;;;7.63;1.30;;;8.10;99.90;;;;;;5036583;28;20040;-84
2024/02/23 09:32:11;;;;;;;8.05;1.27;;;8.10;99.90;;;;;;5045277;28;20460;-84
2024/02/23 09:34:37;;;;;;;5.53;1.35;;;8.10;99.90;;;;;;5041157;28;20026;-83
2024/02/23 09:37:03;;;;;;;3.13;1.38;;;8.10;99.90;;;;;;5028295;28;20563;-84
2024/02/23 09:39:30;;;;;;;4.60;1.20;;;8.10;99.90;;;;;;5035659;28;20032;-83
2024/02/23 09:41:59;;;;;;;2.90;1.05;;;8.10;99.90;;;;;;5035277;28;20051;-84
2024/02/23 09:44:35;;;;;;;3.55;0.95;;;8.10;99.90;;;;;;5039242;28;20075;-83
2024/02/23 09:47:07;;;;;;;5.55;1.55;;;8.00;99.90;;;;;;5052268;28;20033;-86
2024/02/23 09:49:42;;;;;;;6.82;1.27;;;8.10;99.90;;;;;;5051591;28;20461;-83
2024/02/23 09:52:11;;;;;;;6.85;1.35;;;8.10;99.90;;;;;;5073513;28;20017;-83
2024/02/23 09:54:38;;;;;;;4.25;1.02;;;8.10;99.90;;;;;;5056116;28;20028;-84
2024/02/23 09:57:08;;;;;;;6.78;1.45;;;8.20;99.90;;;;;;5037456;28;20033;-84
2024/02/23 09:59:35;;;;;;;5.75;1.20;;;8.10;99.90;;;;;;5052393;28;20029;-84
2024/02/23 10:02:14;;;;;;;4.00;1.10;;;8.20;99.90;;;;;;5062780;28;20036;-84
2024/02/23 10:04:43;;;;;;;7.53;1.90;;;8.20;99.90;;;;;;5073123;28;20024;-84
2024/02/23 10:07:09;;;;;;;3.55;1.40;;;8.20;99.90;;;;;;5055530;28;20078;-84
2024/02/23 10:09:35;;;;;;;5.78;1.23;;;8.20;99.90;;;;;;5062643;28;20029;-84
2024/02/23 10:12:02;;;;;;;4.20;1.40;;;8.30;99.90;;;;;;5039342;28;20024;-85
2024/02/23 10:14:28;;;;;;;5.40;1.20;;;8.30;99.90;;;;;;5074419;28;20027;-85
2024/02/23 10:16:55;;;;;;;3.33;1.30;;;8.30;99.90;;;;;;5059501;28;20127;-84
2024/02/23 10:19:21;;;;;;;3.97;1.15;;;8.40;99.90;;;;;;5055858;28;20106;-85
2024/02/23 10:21:47;;;;;;;6.47;1.55;;;8.40;99.90;;;;;;5048184;28;20091;-84
2024/02/23 10:24:13;;;;;;;5.90;1.30;;;8.40;99.90;;;;;;5049662;28;20032;-84
2024/02/23 10:26:38;;;;;;;5.38;1.10;;;8.40;99.90;;;;;;5036598;28;20404;-84
2024/02/23 10:29:08;;;;;;;5.70;1.40;;;8.40;99.90;;;;;;5037028;28;20120;-85
2024/02/23 10:31:39;;;;;;;6.35;1.63;;;8.40;99.90;;;;;;5008077;28;20026;-84
2024/02/23 10:34:13;;;;;;;4.93;1.17;;;8.30;99.90;;;;;;5030522;28;20102;-85
2024/02/23 10:36:42;;;;;;;5.13;1.25;;;8.30;99.90;;;;;;5071282;28;20033;-84
2024/02/23 10:39:12;;;;;;;3.20;1.17;;;8.30;99.90;;;;;;5087157;28;20037;-84
2024/02/23 10:41:40;;;;;;;5.32;1.17;;;8.30;99.90;;;;;;5048425;28;20008;-84
2024/02/23 10:44:07;;;;;;;3.28;0.85;;;8.30;99.90;;;;;;5046819;28;20052;-84
2024/02/23 10:46:33;;;;;;;3.63;1.00;;;8.30;99.90;;;;;;5059592;28;20065;-83
2024/02/23 10:48:59;;;;;;;3.58;1.00;;;8.30;99.90;;;;;;5064297;28;20119;-83
2024/02/23 10:51:25;;;;;;;3.75;1.00;;;8.30;99.90;;;;;;5076675;28;20376;-84
2024/02/23 10:53:52;;;;;;;7.07;0.90;;;8.30;99.90;;;;;;5041438;28;20035;-84
2024/02/23 10:56:19;;;;;;;3.95;0.88;;;8.30;99.90;;;;;;5039034;28;20029;-84
2024/02/23 10:58:45;;;;;;;3.22;0.77;;;8.40;99.90;;;;;;5052956;28;20031;-84
2024/02/23 11:01:13;;;;;;;1.77;0.70;;;8.40;99.90;;;;;;5038340;28;20051;-85
2024/02/23 11:03:42;;;;;;;2.92;1.13;;;8.40;99.90;;;;;;5055942;28;20028;-83
2024/02/23 11:06:09;;;;;;;3.22;0.70;;;8.40;99.90;;;;;;5066319;28;20429;-83
2024/02/23 11:08:38;;;;;;;2.40;0.80;;;8.40;99.90;;;;;;5041134;28;20056;-83
2024/02/23 11:11:11;;;;;;;1.60;0.55;;;8.40;99.90;;;;;;5078343;28;20421;-84
2024/02/23 11:13:40;;;;;;;2.22;0.85;;;8.40;99.90;;;;;;5065955;28;20374;-83
2024/02/23 11:16:08;;;;;;;2.88;1.00;;;8.40;99.90;;;;;;5032320;28;20479;-85
2024/02/23 11:18:39;;;;;;;2.08;0.70;;;8.50;99.90;;;;;;5039271;28;20472;-84
2024/02/23 11:21:11;;;;;;;3.00;0.85;;;8.50;99.90;;;;;;5059543;28;20072;-83
2024/02/23 11:23:42;;;;;;;2.97;0.90;;;8.50;99.90;;;;;;5059699;28;20028;-83
2024/02/23 11:26:11;;;;;;;4.80;0.70;;;8.50;99.90;;;;;;5041508;28;20092;-84
2024/02/23 11:28:51;;;;;;;3.00;0.80;;;8.50;99.90;;;;;;5038855;28;20035;-84
2024/02/23 11:31:21;;;;;;;2.97;1.15;;;8.50;99.90;;;;;;5049008;28;20528;-84
2024/02/23 11:33:54;;;;;;;5.90;1.27;;;8.50;99.90;;;;;;5045896;28;20024;-84
2024/02/23 11:36:23;;;;;;;4.50;0.60;;;8.50;99.90;;;;;;5058020;28;20576;-84
2024/02/23 11:38:54;;;;;;;4.13;1.23;;;8.50;99.90;;;;;;5068242;28;20419;-83
2024/02/23 11:41:22;;;;;;;5.22;0.85;;;8.60;99.90;;;;;;5045113;28;20061;-84
2024/02/23 11:43:48;;;;;;;4.20;0.63;;;8.60;99.90;;;;;;5053658;28;20021;-84
2024/02/23 11:46:16;;;;;;;1.30;0.75;;;8.60;99.90;;;;;;5048134;28;20035;-85
2024/02/23 11:48:43;;;;;;;1.75;0.65;;;8.70;99.90;;;;;;5066082;28;20062;-85
2024/02/23 11:51:09;;;;;;;1.65;0.85;;;8.70;99.90;;;;;;5034755;28;20327;-85
2024/02/23 11:53:37;;;;;;;5.13;0.80;;;8.70;99.90;;;;;;5059690;28;20394;-83
2024/02/23 11:56:07;;;;;;;4.75;1.02;;;8.80;99.90;;;;;;5049373;28;20044;-83
2024/02/23 11:58:34;;;;;;;3.53;0.70;;;8.80;99.90;;;;;;5051615;28;20040;-82
2024/02/23 12:01:03;;;;;;;3.00;0.82;;;8.80;99.90;;;;;;5067510;28;20037;-83
2024/02/23 12:03:31;;;;;;;3.72;0.95;;;8.90;99.90;;;;;;5042260;28;20025;-84
2024/02/23 12:05:58;;;;;;;4.07;0.90;;;8.90;99.90;;;;;;5042717;28;20041;-84
2024/02/23 12:08:28;;;;;;;3.75;1.17;;;8.80;99.90;;;;;;5065891;28;20067;-84
2024/02/23 12:10:55;;;;;;;5.03;1.15;;;8.80;99.90;;;;;;5065588;28;20020;-85
2024/02/23 12:13:21;;;;;;;3.33;1.15;;;8.80;99.90;;;;;;5030546;28;20059;-85
2024/02/23 12:15:48;;;;;;;4.22;1.02;;;8.80;99.90;;;;;;5066978;28;20088;-85
2024/02/23 12:18:14;;;;;;;3.97;0.95;;;8.80;99.90;;;;;;5065048;28;20025;-84
2024/02/23 12:20:40;;;;;;;1.80;0.80;;;8.80;99.90;;;;;;5054004;28;20419;-83
2024/02/23 12:23:07;;;;;;;5.05;1.48;;;8.70;99.90;;;;;;5024342;28;20025;-84
2024/02/23 12:25:33;;;;;;;3.80;1.40;;;8.80;99.90;;;;;;5055059;28;20025;-84
2024/02/23 12:28:00;;;;;;;2.58;1.15;;;8.70;99.90;;;;;;5043270;28;20442;-84
2024/02/23 12:30:28;;;;;;;3.28;1.48;;;8.70;99.90;;;;;;5044358;28;20476;-84
2024/02/23 12:33:09;;;;;;;3.10;1.25;;;8.80;99.90;;;;;;5009045;28;20021;-83
2024/02/23 12:35:38;;;;;;;4.80;1.00;;;8.70;99.90;;;;;;5042193;28;20124;-84
2024/02/23 12:38:04;;;;;;;3.42;1.00;;;8.70;99.90;;;;;;5003755;28;20461;-83
2024/02/23 12:40:29;;;;;;;3.90;1.20;;;8.80;99.90;;;;;;5053040;28;20036;-83
2024/02/23 12:42:55;;;;;;;3.70;0.90;;;8.80;99.90;;;;;;5011801;28;20112;-82
2024/02/23 12:45:24;;;;;;;2.97;0.80;;;8.80;99.90;;;;;;5037120;28;20060;-84
2024/02/23 12:47:50;;;;;;;2.78;1.30;;;8.90;99.90;;;;;;5049784;28;20032;-83
2024/02/23 12:50:16;;;;;;;3.17;1.20;;;8.90;99.90;;;;;;5056359;28;20464;-81
2024/02/23 12:52:42;;;;;;;3.13;0.98;;;9.00;99.90;;;;;;5036472;28;20107;-83
2024/02/23 12:55:08;;;;;;;3.35;1.00;;;9.00;99.90;;;;;;5053095;28;20376;-82